Villa Mazan, Argentina
Current Conditions -  °F | °C
As of 7:00 PM on Friday 28 Nov 2014 (Local Time) from SANT Reporting Station
Scattered Clouds Scattered Clouds  
Wind Chill: 93°   Ceiling: Unl
Heat Index: 95°   Visibility: 6mi
Dew Point: 64°   Wind: 7mph
Humidity: 38%   Direction: 320°NW
Pressure: 29.62"   Gusts: NA
Location:  28.67°S, 66.57°W
Report Text: SANT 282200Z 32006KT 9999 FEW035 SCT04034/18 Q1003
Loading
Personal Weather Stations






























Interactive Weather Map New forecast layout! Learn more

10-Day Weather Forecast

Advertisements
Track Severe Weather on mobile